Time,TemperatureF,DewpointF,PressureIn,WindDirection,WindDirectionDegrees,WindSpeedMPH,WindSpeedGustMPH,Humidity,HourlyPrecipIn,Conditions,Clouds,dailyrainin,SolarRadiationWatts/m^2,SoftwareType,DateUTC
2013-01-13 00:09:00,28.4,24.0,30.14,SE,141,0.0,-999.0,84,-99.99,,,0.00,0,weatherlink.com 1.10,2013-01-13 08:09:00,
2013-01-13 00:24:00,28.4,25.0,30.15,SE,141,0.0,-999.0,85,-99.99,,,0.00,0,weatherlink.com 1.10,2013-01-13 08:24:00,
2013-01-13 00:39:00,28.3,25.0,30.14,SE,141,0.0,-999.0,86,-99.99,,,0.00,0,weatherlink.com 1.10,2013-01-13 08:39:00,
2013-01-13 00:54:00,28.1,24.0,30.15,SE,141,0.0,-999.0,85,-99.99,,,0.00,0,weatherlink.com 1.10,2013-01-13 08:54:00,
2013-01-13 01:09:00,27.6,24.0,30.16,SE,141,0.0,-999.0,86,-99.99,,,0.00,0,weatherlink.com 1.10,2013-01-13 09:09:00,
2013-01-13 01:24:00,27.4,24.0,30.16,SE,141,0.0,-999.0,86,-99.99,,,0.00,0,weatherlink.com 1.10,2013-01-13 09:24:00,
2013-01-13 01:39:00,27.4,24.0,30.15,SE,141,0.0,-999.0,86,-99.99,,,0.00,0,weatherlink.com 1.10,2013-01-13 09:39:00,
2013-01-13 01:54:00,27.2,24.0,30.15,SE,141,0.0,-999.0,86,-99.99,,,0.00,0,weatherlink.com 1.10,2013-01-13 09:54:00,
2013-01-13 02:09:00,27.3,24.0,30.15,SE,141,0.0,-999.0,87,-99.99,,,0.00,0,weatherlink.com 1.10,2013-01-13 10:09:00,
2013-01-13 02:24:00,27.6,25.0,30.15,SE,141,0.0,-999.0,88,-99.99,,,0.00,0,weatherlink.com 1.10,2013-01-13 10:24:00,
2013-01-13 02:39:00,27.8,25.0,30.15,SE,141,0.0,-999.0,88,-99.99,,,0.00,0,weatherlink.com 1.10,2013-01-13 10:39:00,
2013-01-13 02:54:00,28.0,25.0,30.15,SE,141,0.0,-999.0,88,-99.99,,,0.00,0,weatherlink.com 1.10,2013-01-13 10:54:00,
2013-01-13 03:09:00,28.1,25.0,30.15,SE,141,0.0,-999.0,88,-99.99,,,0.00,0,weatherlink.com 1.10,2013-01-13 11:09:00,
2013-01-13 03:24:00,28.4,25.0,30.15,SE,141,0.0,-999.0,88,-99.99,,,0.00,0,weatherlink.com 1.10,2013-01-13 11:24:00,
2013-01-13 03:39:00,28.3,25.0,30.14,SE,141,0.0,-999.0,88,-99.99,,,0.00,0,weatherlink.com 1.10,2013-01-13 11:39:00,
2013-01-13 03:54:00,28.1,25.0,30.14,SE,141,0.0,-999.0,88,-99.99,,,0.00,0,weatherlink.com 1.10,2013-01-13 11:54:00,
2013-01-13 04:09:00,28.2,25.0,30.14,SE,141,0.0,-999.0,88,-99.99,,,0.00,0,weatherlink.com 1.10,2013-01-13 12:09:00,
2013-01-13 04:24:00,28.1,25.0,30.15,SE,141,0.0,-999.0,88,-99.99,,,0.00,0,weatherlink.com 1.10,2013-01-13 12:24:00,
2013-01-13 04:39:00,28.3,25.0,30.15,SE,141,0.0,-999.0,88,-99.99,,,0.00,0,weatherlink.com 1.10,2013-01-13 12:39:00,
2013-01-13 04:54:00,28.2,25.0,30.15,SE,141,0.0,-999.0,88,-99.99,,,0.00,0,weatherlink.com 1.10,2013-01-13 12:54:00,
2013-01-13 05:09:00,27.8,25.0,30.16,SE,141,0.0,-999.0,88,-99.99,,,0.00,0,weatherlink.com 1.10,2013-01-13 13:09:00,
2013-01-13 05:24:00,27.5,24.0,30.16,SE,141,0.0,-999.0,88,-99.99,,,0.00,0,weatherlink.com 1.10,2013-01-13 13:24:00,
2013-01-13 05:39:00,27.4,24.0,30.17,SE,141,0.0,-999.0,88,-99.99,,,0.00,0,weatherlink.com 1.10,2013-01-13 13:39:00,
2013-01-13 05:54:00,27.1,24.0,30.18,SE,141,0.0,-999.0,88,-99.99,,,0.00,0,weatherlink.com 1.10,2013-01-13 13:54:00,
2013-01-13 06:09:00,27.1,24.0,30.18,SE,141,0.0,-999.0,88,-99.99,,,0.00,0,weatherlink.com 1.10,2013-01-13 14:09:00,
2013-01-13 06:26:00,27.0,24.0,30.18,SE,140,0.0,-999.0,89,-99.99,,,0.00,0,weatherlink.com 1.10,2013-01-13 14:26:00,
2013-01-13 06:39:00,26.6,24.0,30.18,SE,140,0.0,-999.0,88,-99.99,,,0.00,0,weatherlink.com 1.10,2013-01-13 14:39:00,
2013-01-13 06:54:00,26.3,23.0,30.18,SE,140,0.0,-999.0,88,-99.99,,,0.00,0,weatherlink.com 1.10,2013-01-13 14:54:00,
2013-01-13 07:09:00,26.3,23.0,30.19,SE,140,0.0,-999.0,88,-99.99,,,0.00,11,weatherlink.com 1.10,2013-01-13 15:09:00,
2013-01-13 07:24:00,26.2,23.0,30.19,SE,140,0.0,-999.0,88,-99.99,,,0.00,28,weatherlink.com 1.10,2013-01-13 15:24:00,
2013-01-13 07:39:00,26.5,24.0,30.19,SE,140,0.0,-999.0,89,-99.99,,,0.00,74,weatherlink.com 1.10,2013-01-13 15:39:00,
2013-01-13 07:54:00,27.2,24.0,30.20,SE,140,0.0,-999.0,89,-99.99,,,0.00,149,weatherlink.com 1.10,2013-01-13 15:54:00,
2013-01-13 08:09:00,29.0,27.0,30.20,SE,140,0.0,-999.0,90,-99.99,,,0.00,178,weatherlink.com 1.10,2013-01-13 16:09:00,
2013-01-13 08:25:00,31.1,29.0,30.20,SE,140,0.0,-999.0,91,-99.99,,,0.00,237,weatherlink.com 1.10,2013-01-13 16:25:00,
2013-01-13 08:40:00,33.9,31.0,30.19,SE,140,0.0,-999.0,89,-99.99,,,0.00,302,weatherlink.com 1.10,2013-01-13 16:40:00,
2013-01-13 08:55:00,36.1,33.0,30.19,SE,140,0.0,-999.0,88,-99.99,,,0.00,352,weatherlink.com 1.10,2013-01-13 16:55:00,
2013-01-13 09:10:00,38.6,34.0,30.20,SE,140,0.0,-999.0,84,-99.99,,,0.00,396,weatherlink.com 1.10,2013-01-13 17:10:00,
2013-01-13 09:25:00,41.6,35.0,30.19,SE,140,0.0,-999.0,77,-99.99,,,0.00,434,weatherlink.com 1.10,2013-01-13 17:25:00,
2013-01-13 09:40:00,45.0,34.0,30.19,SE,140,0.0,-999.0,65,-99.99,,,0.00,469,weatherlink.com 1.10,2013-01-13 17:40:00,
2013-01-13 09:55:00,48.5,26.0,30.19,SE,141,0.0,-999.0,42,-99.99,,,0.00,504,weatherlink.com 1.10,2013-01-13 17:55:00,
2013-01-13 10:12:00,51.4,24.0,30.18,SE,141,0.0,-999.0,34,-99.99,,,0.00,536,weatherlink.com 1.10,2013-01-13 18:12:00,
2013-01-13 10:25:00,53.0,23.0,30.17,SW,236,1.0,-999.0,31,-99.99,,,0.00,555,weatherlink.com 1.10,2013-01-13 18:25:00,
2013-01-13 10:40:00,54.1,23.0,30.17,SSE,165,0.0,-999.0,30,-99.99,,,0.00,578,weatherlink.com 1.10,2013-01-13 18:40:00,
2013-01-13 10:55:00,54.9,23.0,30.16,NW,309,1.0,-999.0,29,-99.99,,,0.00,596,weatherlink.com 1.10,2013-01-13 18:55:00,
2013-01-13 11:10:00,54.8,23.0,30.15,NNW,328,0.0,-999.0,29,-99.99,,,0.00,608,weatherlink.com 1.10,2013-01-13 19:10:00,
2013-01-13 11:25:00,55.8,24.0,30.14,SW,233,4.0,-999.0,29,-99.99,,,0.00,619,weatherlink.com 1.10,2013-01-13 19:25:00,
2013-01-13 11:40:00,56.0,23.0,30.14,West,264,1.0,-999.0,28,-99.99,,,0.00,624,weatherlink.com 1.10,2013-01-13 19:40:00,
2013-01-13 11:55:00,56.1,24.0,30.12,West,267,0.0,-999.0,29,-99.99,,,0.00,628,weatherlink.com 1.10,2013-01-13 19:55:00,
2013-01-13 12:11:00,56.2,25.0,30.11,SW,218,4.0,-999.0,30,-99.99,,,0.00,624,weatherlink.com 1.10,2013-01-13 20:11:00,
2013-01-13 12:26:00,56.3,26.0,30.11,West,268,2.0,-999.0,31,-99.99,,,0.00,626,weatherlink.com 1.10,2013-01-13 20:26:00,
2013-01-13 12:41:00,56.0,23.0,30.10,WSW,240,0.0,-999.0,28,-99.99,,,0.00,608,weatherlink.com 1.10,2013-01-13 20:41:00,
2013-01-13 12:56:00,55.9,24.0,30.10,WSW,248,0.0,-999.0,29,-99.99,,,0.00,592,weatherlink.com 1.10,2013-01-13 20:56:00,
2013-01-13 13:11:00,56.6,24.0,30.09,WSW,253,5.0,-999.0,29,-99.99,,,0.00,561,weatherlink.com 1.10,2013-01-13 21:11:00,
2013-01-13 13:26:00,56.8,24.0,30.10,West,278,4.0,-999.0,28,-99.99,,,0.00,531,weatherlink.com 1.10,2013-01-13 21:26:00,
2013-01-13 13:41:00,55.8,25.0,30.10,WNW,293,4.0,-999.0,30,-99.99,,,0.00,352,weatherlink.com 1.10,2013-01-13 21:41:00,
2013-01-13 13:58:00,55.2,25.0,30.09,West,265,0.0,-999.0,31,-99.99,,,0.00,450,weatherlink.com 1.10,2013-01-13 21:58:00,
2013-01-13 14:11:00,55.3,26.0,30.09,NW,325,2.0,-999.0,32,-99.99,,,0.00,450,weatherlink.com 1.10,2013-01-13 22:11:00,
2013-01-13 14:26:00,55.5,27.0,30.10,WSW,242,6.0,-999.0,33,-99.99,,,0.00,387,weatherlink.com 1.10,2013-01-13 22:26:00,
2013-01-13 14:41:00,55.4,27.0,30.10,NNW,334,4.0,-999.0,34,-99.99,,,0.00,329,weatherlink.com 1.10,2013-01-13 22:41:00,
2013-01-13 14:56:00,56.0,26.0,30.10,NW,326,2.0,-999.0,31,-99.99,,,0.00,339,weatherlink.com 1.10,2013-01-13 22:56:00,
2013-01-13 15:11:00,55.2,26.0,30.10,WNW,296,3.0,-999.0,33,-99.99,,,0.00,227,weatherlink.com 1.10,2013-01-13 23:11:00,
2013-01-13 15:26:00,54.2,25.0,30.10,West,266,4.0,-999.0,33,-99.99,,,0.00,251,weatherlink.com 1.10,2013-01-13 23:26:00,
2013-01-13 15:41:00,54.2,25.0,30.09,West,268,1.0,-999.0,33,-99.99,,,0.00,220,weatherlink.com 1.10,2013-01-13 23:41:00,
2013-01-13 15:56:00,54.0,25.0,30.09,WSW,242,4.0,-999.0,33,-99.99,,,0.00,195,weatherlink.com 1.10,2013-01-13 23:56:00,
2013-01-13 16:11:00,53.7,25.0,30.09,WSW,257,0.0,-999.0,33,-99.99,,,0.00,69,weatherlink.com 1.10,2013-01-14 00:11:00,
2013-01-13 16:26:00,52.4,25.0,30.09,West,266,1.0,-999.0,34,-99.99,,,0.00,40,weatherlink.com 1.10,2013-01-14 00:26:00,
2013-01-13 16:41:00,51.6,25.0,30.09,West,277,0.0,-999.0,35,-99.99,,,0.00,21,weatherlink.com 1.10,2013-01-14 00:41:00,
2013-01-13 16:58:00,50.6,25.0,30.09,West,277,0.0,-999.0,37,-99.99,,,0.00,7,weatherlink.com 1.10,2013-01-14 00:58:00,
2013-01-13 17:11:00,49.3,27.0,30.09,WNW,286,0.0,-999.0,42,-99.99,,,0.00,0,weatherlink.com 1.10,2013-01-14 01:11:00,
2013-01-13 17:26:00,48.6,29.0,30.09,WNW,286,0.0,-999.0,47,-99.99,,,0.00,0,weatherlink.com 1.10,2013-01-14 01:26:00,
2013-01-13 17:41:00,47.4,28.0,30.10,WNW,286,0.0,-999.0,48,-99.99,,,0.00,0,weatherlink.com 1.10,2013-01-14 01:41:00,
2013-01-13 17:56:00,45.8,28.0,30.10,WNW,286,0.0,-999.0,50,-99.99,,,0.00,0,weatherlink.com 1.10,2013-01-14 01:56:00,
2013-01-13 18:11:00,43.1,26.0,30.11,West,259,0.0,-999.0,51,-99.99,,,0.00,0,weatherlink.com 1.10,2013-01-14 02:11:00,
2013-01-13 18:26:00,41.3,25.0,30.11,SW,220,0.0,-999.0,53,-99.99,,,0.00,0,weatherlink.com 1.10,2013-01-14 02:26:00,
2013-01-13 18:41:00,40.0,25.0,30.12,SW,220,0.0,-999.0,56,-99.99,,,0.00,0,weatherlink.com 1.10,2013-01-14 02:41:00,
2013-01-13 18:56:00,39.1,25.0,30.12,SW,220,0.0,-999.0,58,-99.99,,,0.00,0,weatherlink.com 1.10,2013-01-14 02:56:00,
2013-01-13 19:11:00,38.6,25.0,30.12,SW,220,0.0,-999.0,59,-99.99,,,0.00,0,weatherlink.com 1.10,2013-01-14 03:11:00,
2013-01-13 19:26:00,38.3,25.0,30.12,SW,220,0.0,-999.0,60,-99.99,,,0.00,0,weatherlink.com 1.10,2013-01-14 03:26:00,
2013-01-13 19:41:00,37.7,25.0,30.12,SW,220,0.0,-999.0,61,-99.99,,,0.00,0,weatherlink.com 1.10,2013-01-14 03:41:00,
2013-01-13 19:56:00,36.8,26.0,30.12,SSW,198,0.0,-999.0,64,-99.99,,,0.00,0,weatherlink.com 1.10,2013-01-14 03:56:00,
2013-01-13 20:11:00,35.7,25.0,30.12,SSW,198,0.0,-999.0,66,-99.99,,,0.00,0,weatherlink.com 1.10,2013-01-14 04:11:00,
2013-01-13 20:26:00,35.0,25.0,30.12,SSW,198,0.0,-999.0,67,-99.99,,,0.00,0,weatherlink.com 1.10,2013-01-14 04:26:00,
2013-01-13 20:41:00,34.3,25.0,30.13,SSW,198,0.0,-999.0,70,-99.99,,,0.00,0,weatherlink.com 1.10,2013-01-14 04:41:00,
2013-01-13 20:56:00,33.9,25.0,30.13,SSW,198,0.0,-999.0,70,-99.99,,,0.00,0,weatherlink.com 1.10,2013-01-14 04:56:00,
2013-01-13 21:11:00,33.6,25.0,30.13,SSW,198,0.0,-999.0,71,-99.99,,,0.00,0,weatherlink.com 1.10,2013-01-14 05:11:00,
2013-01-13 21:26:00,33.1,25.0,30.13,SSW,198,0.0,-999.0,73,-99.99,,,0.00,0,weatherlink.com 1.10,2013-01-14 05:26:00,
2013-01-13 21:41:00,32.8,25.0,30.14,SSW,198,0.0,-999.0,74,-99.99,,,0.00,0,weatherlink.com 1.10,2013-01-14 05:41:00,
2013-01-13 21:56:00,32.5,25.0,30.14,SSW,198,0.0,-999.0,75,-99.99,,,0.00,0,weatherlink.com 1.10,2013-01-14 05:56:00,
2013-01-13 22:11:00,32.4,26.0,30.14,SSW,198,0.0,-999.0,76,-99.99,,,0.00,0,weatherlink.com 1.10,2013-01-14 06:11:00,
2013-01-13 22:26:00,32.2,25.0,30.15,SSW,198,0.0,-999.0,76,-99.99,,,0.00,0,weatherlink.com 1.10,2013-01-14 06:26:00,
2013-01-13 22:41:00,31.9,25.0,30.15,SSW,198,0.0,-999.0,77,-99.99,,,0.00,0,weatherlink.com 1.10,2013-01-14 06:41:00,
2013-01-13 22:56:00,31.7,26.0,30.16,East,97,0.0,-999.0,78,-99.99,,,0.00,0,weatherlink.com 1.10,2013-01-14 06:56:00,
2013-01-13 23:11:00,31.6,26.0,30.16,East,95,0.0,-999.0,80,-99.99,,,0.00,0,weatherlink.com 1.10,2013-01-14 07:11:00,
2013-01-13 23:26:00,31.2,25.0,30.16,East,96,0.0,-999.0,79,-99.99,,,0.00,0,weatherlink.com 1.10,2013-01-14 07:26:00,
2013-01-13 23:41:00,30.7,25.0,30.16,ESE,117,0.0,-999.0,79,-99.99,,,0.00,0,weatherlink.com 1.10,2013-01-14 07:41:00,
2013-01-13 23:56:00,30.4,25.0,30.16,ESE,117,0.0,-999.0,80,-99.99,,,0.00,0,weatherlink.com 1.10,2013-01-14 07:56:00,